Pinos Altos, New Mexico
Current Conditions -  °F | °C
As of 7:15 PM on Thursday 20 Nov 2014 (Local Time) from KSVC Reporting Station
Clear Clear  
Wind Chill:   Ceiling: Unl
Heat Index:   Visibility: 10mi
Dew Point: -12°   Wind: 10mph
Humidity: 31%   Direction: 350°N
Pressure: 30.1"   Gusts: NA
Location:  32.87°N, 108.22°W
Report Text: KSVC 210215Z AUTO 35009KT 10SM CLR 04/M12 A3010 RMK AO2
Loading
Personal Weather Stations






























Interactive Weather Map New forecast layout! Learn more

10-Day Weather Forecast

Advertisements
Track Severe Weather on mobile